Time;durP1;ratioP1;P1;durP2;ratioP2;P2;SDS_P1;SDS_P2;PMS_P1;PMS_P2;Temp;Humidity;BMP_temperature;BMP_pressure;BME280_temperature;BME280_humidity;BME280_pressure;Samples;Min_cycle;Max_cycle;Signal;HPM_P1;HPM_P2
2023/06/05 00:01:23;;;;;;;8.98;5.13;;;15.60;99.90;;;;;;5067353;28;20055;-60
2023/06/05 00:03:53;;;;;;;8.77;5.65;;;15.60;99.90;;;;;;5067970;28;20528;-59
2023/06/05 00:06:20;;;;;;;7.43;5.28;;;15.60;99.90;;;;;;5063599;28;20051;-60
2023/06/05 00:08:47;;;;;;;8.55;4.72;;;15.60;99.90;;;;;;5064172;28;20048;-60
2023/06/05 00:11:13;;;;;;;9.30;5.63;;;15.50;99.90;;;;;;5070875;28;20055;-60
2023/06/05 00:13:40;;;;;;;11.73;6.22;;;15.50;99.90;;;;;;5069826;28;20044;-58
2023/06/05 00:16:07;;;;;;;8.13;5.03;;;15.50;99.90;;;;;;5062921;28;20115;-59
2023/06/05 00:18:34;;;;;;;7.88;5.25;;;15.50;99.90;;;;;;5069426;28;20041;-61
2023/06/05 00:21:03;;;;;;;11.23;5.22;;;15.50;99.90;;;;;;5071055;28;20040;-60
2023/06/05 00:23:30;;;;;;;9.20;5.10;;;15.60;99.90;;;;;;5053312;28;20045;-59
2023/06/05 00:25:57;;;;;;;7.40;5.35;;;15.60;99.90;;;;;;5068984;28;20102;-60
2023/06/05 00:28:24;;;;;;;7.45;5.05;;;15.50;99.90;;;;;;5069631;28;20041;-57
2023/06/05 00:30:51;;;;;;;9.65;5.22;;;15.50;99.90;;;;;;5070925;28;20135;-57
2023/06/05 00:33:18;;;;;;;9.13;6.05;;;15.40;99.90;;;;;;5068199;28;20036;-56
2023/06/05 00:35:45;;;;;;;8.85;5.32;;;15.50;99.90;;;;;;5069503;28;20044;-57
2023/06/05 00:38:11;;;;;;;7.10;5.13;;;15.50;99.90;;;;;;5070817;28;20047;-57
2023/06/05 00:40:38;;;;;;;9.35;5.40;;;15.40;99.90;;;;;;5057178;28;20498;-60
2023/06/05 00:43:05;;;;;;;10.85;5.95;;;15.50;99.90;;;;;;5070227;28;20494;-60
2023/06/05 00:45:34;;;;;;;8.48;5.70;;;15.40;99.90;;;;;;5070029;28;20040;-56
2023/06/05 00:48:01;;;;;;;11.35;6.40;;;15.40;99.90;;;;;;5069703;28;20513;-60
2023/06/05 00:50:31;;;;;;;;;;;15.30;99.90;;;;;;5062067;28;20055;-61
2023/06/05 00:53:06;;;;;;;9.18;6.13;;;15.30;99.90;;;;;;5087218;28;19924;-58
2023/06/05 00:55:33;;;;;;;10.45;5.95;;;15.30;99.90;;;;;;5089427;28;20036;-61
2023/06/05 00:58:03;;;;;;;9.20;5.95;;;15.20;99.90;;;;;;5089188;28;20052;-60
2023/06/05 01:00:30;;;;;;;10.38;6.20;;;15.20;99.90;;;;;;5088863;28;20058;-61
2023/06/05 01:02:58;;;;;;;10.35;6.07;;;15.20;99.90;;;;;;5071447;28;20075;-60
2023/06/05 01:05:26;;;;;;;9.13;5.82;;;15.20;99.90;;;;;;5072389;28;20044;-61
2023/06/05 01:07:53;;;;;;;11.00;6.10;;;15.20;99.90;;;;;;5072185;28;20044;-61
2023/06/05 01:10:20;;;;;;;9.35;5.75;;;15.10;99.90;;;;;;5089871;28;20400;-60
2023/06/05 01:12:58;;;;;;;11.13;6.38;;;15.10;99.90;;;;;;5069284;28;20455;-61
2023/06/05 01:15:29;;;;;;;10.52;6.85;;;15.00;99.90;;;;;;5089739;28;20404;-60
2023/06/05 01:17:58;;;;;;;9.68;6.10;;;15.00;99.90;;;;;;5090676;28;20443;-61
2023/06/05 01:20:56;;;;;;;7.32;5.40;;;15.00;99.90;;;;;;5067852;28;20044;-61
2023/06/05 01:23:25;;;;;;;8.57;5.82;;;15.00;99.90;;;;;;5082967;28;20063;-61
2023/06/05 01:25:53;;;;;;;9.77;6.05;;;15.00;99.90;;;;;;5071508;28;20309;-60
2023/06/05 01:28:26;;;;;;;10.25;6.35;;;14.90;99.90;;;;;;5071583;28;20494;-61
2023/06/05 01:31:03;;;;;;;10.68;6.28;;;14.90;99.90;;;;;;5071768;28;20066;-59
2023/06/05 01:33:49;;;;;;;9.32;5.72;;;14.90;99.90;;;;;;5072421;28;20054;-61
2023/06/05 01:36:17;;;;;;;7.93;5.28;;;14.90;99.90;;;;;;5061560;28;20142;-61
2023/06/05 01:38:48;;;;;;;10.18;5.40;;;14.90;99.90;;;;;;5071119;28;20044;-60
2023/06/05 01:41:15;;;;;;;7.43;5.25;;;14.90;99.90;;;;;;5081649;28;20040;-61
2023/06/05 01:43:45;;;;;;;11.63;5.88;;;14.90;99.90;;;;;;5071836;28;20048;-61
2023/06/05 01:46:13;;;;;;;10.27;5.90;;;14.80;99.90;;;;;;5082069;28;20040;-60
2023/06/05 01:48:40;;;;;;;9.90;5.97;;;14.90;99.90;;;;;;5071229;28;20055;-60
2023/06/05 01:51:07;;;;;;;8.80;5.20;;;14.90;99.90;;;;;;5069779;28;20528;-58
2023/06/05 01:53:35;;;;;;;;;;;14.80;99.90;;;;;;5090135;28;20382;-60
2023/06/05 01:56:03;;;;;;;8.52;5.35;;;14.90;99.90;;;;;;5070986;28;19920;-60
2023/06/05 01:58:30;;;;;;;8.10;5.43;;;14.80;99.90;;;;;;5071360;28;20097;-60
2023/06/05 02:00:57;;;;;;;7.55;5.57;;;14.80;99.90;;;;;;5071642;28;20542;-61
2023/06/05 02:03:24;;;;;;;10.15;5.68;;;14.80;99.90;;;;;;5066385;28;20043;-60
2023/06/05 02:05:52;;;;;;;8.68;5.65;;;14.80;99.90;;;;;;5090390;28;20040;-61
2023/06/05 02:08:22;;;;;;;9.93;5.80;;;14.70;99.90;;;;;;5070785;28;20048;-59
2023/06/05 02:10:49;;;;;;;7.03;4.80;;;14.70;99.90;;;;;;5064911;28;20497;-61
2023/06/05 02:13:18;;;;;;;9.05;6.00;;;14.70;99.90;;;;;;5089634;28;20127;-61
2023/06/05 02:15:46;;;;;;;9.68;5.45;;;14.60;99.90;;;;;;5072312;28;20044;-60
2023/06/05 02:18:16;;;;;;;9.60;5.72;;;14.60;99.90;;;;;;5088433;28;20435;-60
2023/06/05 02:20:43;;;;;;;7.03;5.15;;;14.60;99.90;;;;;;5072587;28;20509;-61
2023/06/05 02:23:11;;;;;;;8.02;5.55;;;14.50;99.90;;;;;;5088827;28;20093;-61
2023/06/05 02:25:37;;;;;;;8.50;5.13;;;14.50;99.90;;;;;;5072042;28;20569;-61
2023/06/05 02:28:04;;;;;;;7.45;5.30;;;14.60;99.90;;;;;;5089924;28;20479;-61
2023/06/05 02:30:32;;;;;;;9.43;5.47;;;14.20;99.90;;;;;;5069690;28;20549;-59
2023/06/05 02:33:00;;;;;;;8.40;5.35;;;14.30;99.90;;;;;;5075010;28;20416;-61
2023/06/05 02:35:29;;;;;;;8.32;5.40;;;14.40;99.90;;;;;;5075623;28;20044;-61
2023/06/05 02:37:57;;;;;;;13.32;5.63;;;14.40;99.90;;;;;;5073118;28;20044;-61
2023/06/05 02:40:24;;;;;;;7.15;4.93;;;14.40;99.90;;;;;;5083970;28;20058;-60
2023/06/05 02:42:51;;;;;;;9.35;5.80;;;14.40;99.90;;;;;;5091636;28;20401;-60
2023/06/05 02:45:18;;;;;;;9.60;5.13;;;14.40;99.90;;;;;;5094186;28;20043;-60
2023/06/05 02:47:44;;;;;;;8.07;5.38;;;14.40;99.90;;;;;;5075457;28;20405;-61
2023/06/05 02:50:12;;;;;;;7.10;5.00;;;14.30;99.90;;;;;;5075099;28;20060;-60
2023/06/05 02:52:50;;;;;;;6.88;5.10;;;14.30;99.90;;;;;;5088910;28;20046;-61
2023/06/05 02:55:49;;;;;;;8.77;5.13;;;14.20;99.90;;;;;;5075771;28;20127;-60
2023/06/05 02:58:17;;;;;;;8.05;5.45;;;14.00;99.90;;;;;;5083728;28;20415;-60
2023/06/05 03:00:50;;;;;;;10.25;5.47;;;14.00;99.90;;;;;;5074380;28;20067;-61
2023/06/05 03:07:36;;;;;;;8.18;4.93;;;13.90;99.90;;;;;;5075485;28;20416;-61
2023/06/05 03:10:07;;;;;;;7.57;5.43;;;13.80;99.90;;;;;;5073684;28;20478;-61
2023/06/05 03:12:34;;;;;;;10.60;5.63;;;13.70;99.90;;;;;;5066501;28;20682;-61
2023/06/05 03:15:02;;;;;;;8.07;5.32;;;13.70;99.90;;;;;;5074704;28;20453;-61
2023/06/05 03:17:31;;;;;;;8.93;5.97;;;13.70;99.90;;;;;;5075485;28;20443;-61
2023/06/05 03:19:58;;;;;;;9.05;5.22;;;13.70;99.90;;;;;;5074653;28;20044;-61
2023/06/05 03:22:26;;;;;;;9.15;5.63;;;13.70;99.90;;;;;;5074773;28;20090;-61
2023/06/05 03:24:54;;;;;;;8.10;5.72;;;13.70;99.90;;;;;;5070507;28;20110;-60
2023/06/05 03:27:21;;;;;;;9.30;6.00;;;13.70;99.90;;;;;;5074285;28;20044;-60
2023/06/05 03:29:48;;;;;;;8.52;6.20;;;13.60;99.90;;;;;;5089629;28;20112;-61
2023/06/05 03:32:15;;;;;;;10.65;6.30;;;13.60;99.90;;;;;;5092729;28;20392;-60
2023/06/05 03:34:48;;;;;;;8.55;6.20;;;13.60;99.90;;;;;;5075729;28;20508;-61
2023/06/05 03:37:16;;;;;;;9.00;5.72;;;13.60;99.90;;;;;;5072508;28;20040;-61
2023/06/05 03:39:45;;;;;;;8.40;5.38;;;13.60;99.90;;;;;;5073411;28;20044;-61
2023/06/05 03:42:12;;;;;;;9.32;5.32;;;13.60;99.90;;;;;;5093037;28;20069;-59
2023/06/05 03:44:40;;;;;;;10.43;6.03;;;13.60;99.90;;;;;;5088731;28;20130;-61
2023/06/05 03:47:07;;;;;;;7.78;5.45;;;13.60;99.90;;;;;;5074466;28;20474;-61
2023/06/05 03:49:36;;;;;;;8.60;5.60;;;13.60;99.90;;;;;;5069467;28;20040;-61
2023/06/05 03:52:03;;;;;;;6.70;5.22;;;13.50;99.90;;;;;;5064210;28;20048;-61
2023/06/05 03:54:33;;;;;;;8.73;5.35;;;13.60;99.90;;;;;;5091754;28;20508;-60
2023/06/05 03:57:00;;;;;;;8.43;5.90;;;13.50;99.90;;;;;;5090773;28;20048;-59
2023/06/05 03:59:28;;;;;;;10.43;5.22;;;13.60;99.90;;;;;;5090851;28;20059;-58
2023/06/05 04:01:59;;;;;;;9.25;5.40;;;13.70;99.90;;;;;;5073621;28;20044;-59
2023/06/05 04:04:26;;;;;;;9.05;5.95;;;13.70;99.90;;;;;;5070411;28;20048;-58
2023/06/05 04:06:56;;;;;;;8.77;5.82;;;13.70;99.90;;;;;;5091962;28;20070;-60
2023/06/05 04:09:25;;;;;;;7.78;5.30;;;13.80;99.90;;;;;;5073272;28;20042;-61
2023/06/05 04:11:53;;;;;;;8.45;5.82;;;13.80;99.90;;;;;;5073780;28;20493;-61
2023/06/05 04:14:21;;;;;;;9.25;5.80;;;13.80;99.90;;;;;;5069735;28;20040;-61
2023/06/05 04:16:48;;;;;;;8.25;5.10;;;13.80;99.90;;;;;;5073246;28;20085;-60
2023/06/05 04:19:20;;;;;;;8.88;5.47;;;13.80;99.90;;;;;;5072622;28;20508;-61
2023/06/05 04:21:51;;;;;;;8.27;6.18;;;13.80;99.90;;;;;;5073044;28;20044;-61
2023/06/05 04:24:18;;;;;;;;;;;13.80;99.90;;;;;;5070591;28;20044;-61
2023/06/05 04:26:45;;;;;;;9.88;5.22;;;13.90;99.90;;;;;;5073785;28;19920;-61
2023/06/05 04:29:15;;;;;;;8.77;6.22;;;13.90;99.90;;;;;;5073258;28;20077;-61
2023/06/05 04:31:45;;;;;;;12.77;5.88;;;13.90;99.90;;;;;;5072564;28;20051;-61
2023/06/05 04:34:12;;;;;;;14.35;6.07;;;14.00;99.90;;;;;;5084663;28;20044;-61
2023/06/05 04:36:42;;;;;;;;;;;14.00;99.90;;;;;;5066463;28;20140;-60
2023/06/05 04:39:17;;;;;;;8.32;5.72;;;14.00;99.90;;;;;;5091620;28;19982;-61
2023/06/05 04:41:46;;;;;;;9.00;5.60;;;14.10;99.90;;;;;;5073277;28;20512;-61
2023/06/05 04:44:23;;;;;;;12.65;6.95;;;14.10;99.90;;;;;;5066507;28;20086;-59
2023/06/05 04:46:50;;;;;;;12.55;6.05;;;14.10;99.90;;;;;;5072883;28;20615;-61
2023/06/05 04:49:18;;;;;;;11.13;6.43;;;14.10;99.90;;;;;;5081741;28;20501;-62
2023/06/05 04:51:46;;;;;;;10.18;5.80;;;14.10;99.90;;;;;;5080743;28;20052;-61
2023/06/05 04:54:14;;;;;;;10.55;5.50;;;14.20;99.90;;;;;;5073606;28;20040;-61
2023/06/05 04:56:41;;;;;;;10.82;5.80;;;14.20;99.90;;;;;;5072015;28;20036;-59
2023/06/05 04:59:10;;;;;;;10.38;5.63;;;14.40;99.90;;;;;;5071980;28;20518;-61
2023/06/05 05:01:37;;;;;;;9.65;6.88;;;14.30;99.90;;;;;;5067414;28;20040;-61
2023/06/05 05:04:04;;;;;;;;;;;14.40;99.90;;;;;;5071252;28;20408;-59
2023/06/05 05:06:33;;;;;;;11.07;6.97;;;14.40;99.90;;;;;;5087377;28;20314;-60
2023/06/05 05:09:00;;;;;;;13.23;6.97;;;14.50;99.90;;;;;;5071633;28;20138;-60
2023/06/05 05:11:30;;;;;;;10.77;6.93;;;14.60;99.90;;;;;;5068450;28;20040;-60
2023/06/05 05:13:57;;;;;;;10.02;6.68;;;14.60;99.90;;;;;;5072012;28;20044;-58
2023/06/05 05:16:25;;;;;;;12.20;6.68;;;14.60;99.90;;;;;;5066203;28;20052;-61
2023/06/05 05:18:52;;;;;;;;;;;14.80;99.90;;;;;;5077233;28;20394;-60
2023/06/05 05:21:18;;;;;;;11.95;6.75;;;14.90;99.90;;;;;;5072088;28;19924;-60
2023/06/05 05:23:45;;;;;;;12.15;6.53;;;15.00;99.90;;;;;;5067743;28;20044;-60
2023/06/05 05:26:12;;;;;;;9.60;6.93;;;15.10;99.90;;;;;;5065183;28;20401;-60
2023/06/05 05:28:39;;;;;;;12.02;6.22;;;15.20;99.90;;;;;;5072118;28;20067;-61
2023/06/05 05:31:07;;;;;;;11.90;7.20;;;15.30;99.90;;;;;;5072004;28;20051;-61
2023/06/05 05:33:36;;;;;;;9.55;6.50;;;15.40;99.90;;;;;;5074093;28;20689;-61
2023/06/05 05:36:03;;;;;;;10.93;6.65;;;15.30;99.90;;;;;;5070295;28;20138;-59
2023/06/05 05:38:30;;;;;;;10.85;6.80;;;15.20;99.90;;;;;;5058917;28;20090;-60
2023/06/05 05:40:57;;;;;;;13.68;6.70;;;15.20;99.90;;;;;;5068418;28;20050;-60
2023/06/05 05:43:25;;;;;;;9.85;6.00;;;15.20;99.90;;;;;;5079319;28;20113;-61
2023/06/05 05:45:52;;;;;;;9.45;6.30;;;15.20;99.90;;;;;;5090651;28;20127;-60
2023/06/05 05:48:18;;;;;;;10.30;5.82;;;15.30;99.90;;;;;;5089212;28;20086;-60
2023/06/05 05:50:45;;;;;;;9.98;6.10;;;15.50;99.90;;;;;;5084012;28;20052;-60
2023/06/05 05:53:12;;;;;;;9.73;6.13;;;15.50;99.90;;;;;;5090715;28;20044;-60
2023/06/05 05:55:39;;;;;;;9.15;6.30;;;15.60;99.90;;;;;;5090249;28;20059;-60
2023/06/05 05:58:06;;;;;;;13.98;5.97;;;15.70;99.90;;;;;;5089351;28;20055;-60
2023/06/05 06:00:34;;;;;;;10.73;6.20;;;15.90;99.90;;;;;;5088788;28;20044;-58
2023/06/05 06:03:01;;;;;;;7.40;5.68;;;16.00;99.90;;;;;;5092506;28;20097;-60
2023/06/05 06:05:29;;;;;;;8.30;5.80;;;16.20;99.90;;;;;;5093554;28;20135;-58
2023/06/05 06:07:56;;;;;;;7.35;5.43;;;16.30;99.90;;;;;;5086267;28;20044;-59
2023/06/05 06:10:23;;;;;;;;;;;16.30;99.90;;;;;;5092946;28;20044;-60
2023/06/05 06:12:50;;;;;;;8.07;5.53;;;16.40;99.90;;;;;;5090713;28;19919;-60
2023/06/05 06:15:17;;;;;;;;;;;16.40;99.90;;;;;;5084978;28;20075;-59
2023/06/05 06:17:45;;;;;;;11.50;5.85;;;16.50;99.90;;;;;;5089017;28;20351;-59
2023/06/05 06:20:13;;;;;;;11.07;5.65;;;16.60;99.90;;;;;;5092444;28;20379;-60
2023/06/05 06:22:41;;;;;;;9.55;5.43;;;16.60;99.90;;;;;;5091851;28;20109;-58
2023/06/05 06:25:12;;;;;;;9.50;5.70;;;16.70;99.90;;;;;;5091493;28;20401;-60
2023/06/05 06:27:39;;;;;;;7.47;5.25;;;16.70;99.90;;;;;;5093157;28;20044;-59
2023/06/05 06:30:07;;;;;;;9.75;5.40;;;16.90;99.90;;;;;;5093141;28;20044;-60
2023/06/05 06:32:34;;;;;;;8.63;5.47;;;17.00;99.90;;;;;;5093060;28;20036;-60
2023/06/05 06:35:00;;;;;;;9.23;5.60;;;17.20;99.90;;;;;;5093493;28;20056;-61
2023/06/05 06:37:28;;;;;;;9.88;5.28;;;17.50;99.90;;;;;;5089151;28;20040;-59
2023/06/05 06:39:55;;;;;;;13.77;7.20;;;17.60;99.90;;;;;;5093973;28;20050;-60
2023/06/05 06:42:22;;;;;;;11.75;6.70;;;17.70;99.90;;;;;;5074736;28;20221;-58
2023/06/05 06:44:58;;;;;;;10.40;6.05;;;17.80;99.90;;;;;;5075842;28;20082;-59
2023/06/05 06:47:25;;;;;;;8.32;6.00;;;17.80;99.90;;;;;;5089853;28;20048;-60
2023/06/05 06:49:53;;;;;;;10.10;6.38;;;17.80;99.90;;;;;;5089522;28;20090;-60
2023/06/05 06:52:20;;;;;;;;;;;17.80;99.90;;;;;;5085181;28;20040;-61
2023/06/05 06:54:51;;;;;;;9.65;6.05;;;17.80;99.90;;;;;;5093515;28;19923;-59
2023/06/05 06:57:18;;;;;;;7.93;5.57;;;17.80;99.90;;;;;;5083561;28;20399;-60
2023/06/05 06:59:45;;;;;;;8.00;6.15;;;17.80;99.90;;;;;;5093557;28;20329;-60
2023/06/05 07:02:14;;;;;;;10.88;6.50;;;17.80;99.90;;;;;;5092114;28;20052;-61
2023/06/05 07:04:43;;;;;;;14.25;7.05;;;17.80;99.90;;;;;;5093548;28;20712;-60
2023/06/05 07:07:14;;;;;;;9.65;6.43;;;17.80;99.90;;;;;;5088026;28;20127;-61
2023/06/05 07:09:42;;;;;;;9.80;6.15;;;17.80;99.90;;;;;;5087704;28;20036;-60
2023/06/05 07:12:10;;;;;;;11.20;6.30;;;17.70;99.90;;;;;;5091483;28;20036;-60
2023/06/05 07:14:37;;;;;;;10.20;6.20;;;17.70;99.90;;;;;;5092969;28;20036;-60
2023/06/05 07:17:04;;;;;;;8.88;6.18;;;17.70;99.90;;;;;;5088830;28;20055;-59
2023/06/05 07:19:32;;;;;;;;;;;17.70;99.90;;;;;;5093186;28;20051;-61
2023/06/05 07:22:00;;;;;;;9.10;6.43;;;17.70;99.90;;;;;;5088413;28;20381;-60
2023/06/05 07:24:30;;;;;;;8.40;6.28;;;17.80;99.90;;;;;;5092757;28;20123;-59
2023/06/05 07:27:00;;;;;;;9.55;6.82;;;17.90;99.90;;;;;;5091470;28;20112;-60
2023/06/05 07:29:27;;;;;;;15.20;6.70;;;18.00;99.90;;;;;;5092310;28;20032;-59
2023/06/05 07:31:56;;;;;;;10.85;6.70;;;18.10;99.90;;;;;;5087732;28;20051;-61
2023/06/05 07:34:24;;;;;;;11.13;6.72;;;18.20;99.90;;;;;;5091953;28;20040;-60
2023/06/05 07:36:52;;;;;;;11.82;6.47;;;18.40;99.90;;;;;;5087867;28;20501;-61
2023/06/05 07:39:20;;;;;;;16.30;6.68;;;18.60;99.90;;;;;;5083610;28;20123;-59
2023/06/05 07:41:47;;;;;;;10.88;7.22;;;18.80;99.90;;;;;;5091561;28;20102;-61
2023/06/05 07:44:15;;;;;;;;;;;19.00;99.90;;;;;;5092013;28;20500;-60
2023/06/05 07:46:43;;;;;;;10.38;7.05;;;19.20;99.90;;;;;;5087740;28;19931;-59
2023/06/05 07:49:10;;;;;;;11.63;6.90;;;19.30;99.90;;;;;;5091105;28;20036;-60
2023/06/05 07:51:38;;;;;;;10.55;6.85;;;19.30;99.90;;;;;;5092402;28;20397;-57
2023/06/05 07:54:13;;;;;;;9.75;6.72;;;19.30;99.90;;;;;;5090810;28;20046;-60
2023/06/05 07:56:39;;;;;;;10.85;6.50;;;19.30;99.90;;;;;;5088859;28;20055;-60
2023/06/05 07:59:07;;;;;;;9.50;6.93;;;19.60;99.90;;;;;;5091012;28;20050;-60
2023/06/05 08:01:36;;;;;;;8.18;5.97;;;19.80;99.90;;;;;;5078019;28;20052;-59
2023/06/05 08:04:07;;;;;;;11.93;5.50;;;19.80;99.90;;;;;;5091242;28;20044;-59
2023/06/05 08:06:37;;;;;;;10.02;6.65;;;20.10;99.90;;;;;;5087314;28;20055;-60
2023/06/05 08:09:05;;;;;;;9.98;6.05;;;20.20;99.90;;;;;;5090546;28;20044;-60
2023/06/05 08:11:32;;;;;;;10.95;5.90;;;20.20;99.90;;;;;;5091869;28;20496;-60
2023/06/05 08:13:59;;;;;;;8.60;5.70;;;20.30;99.90;;;;;;5090751;28;20458;-60
2023/06/05 08:16:26;;;;;;;7.15;5.43;;;20.30;99.90;;;;;;5091164;28;20115;-60
2023/06/05 08:18:53;;;;;;;8.18;5.20;;;20.40;99.90;;;;;;5091076;28;20071;-60
2023/06/05 08:21:20;;;;;;;10.65;5.57;;;20.60;99.90;;;;;;5083280;28;20130;-60
2023/06/05 08:23:46;;;;;;;9.15;5.53;;;20.30;99.90;;;;;;5087460;28;20142;-60
2023/06/05 08:26:13;;;;;;;9.45;6.05;;;20.50;99.90;;;;;;5091820;28;20659;-61
2023/06/05 08:28:41;;;;;;;11.85;6.15;;;20.60;99.90;;;;;;5085852;28;20044;-60
2023/06/05 08:31:09;;;;;;;10.68;6.25;;;20.80;99.90;;;;;;5083234;28;20048;-60
2023/06/05 08:33:37;;;;;;;11.48;6.18;;;21.00;99.90;;;;;;5089375;28;20039;-60
2023/06/05 08:36:05;;;;;;;8.57;5.97;;;20.90;99.90;;;;;;5090710;28;20508;-58
2023/06/05 08:38:33;;;;;;;11.98;7.07;;;20.80;99.90;;;;;;5084646;28;20040;-60
2023/06/05 08:41:02;;;;;;;11.27;7.32;;;20.60;99.90;;;;;;5091202;28;20127;-59
2023/06/05 08:43:29;;;;;;;9.70;7.13;;;20.40;99.90;;;;;;5090684;28;20396;-61
2023/06/05 08:45:57;;;;;;;;;;;20.40;99.90;;;;;;5091231;28;20585;-61
2023/06/05 08:48:31;;;;;;;16.10;8.77;;;20.50;99.90;;;;;;5090758;28;19920;-61
2023/06/05 08:50:59;;;;;;;16.23;8.43;;;20.50;99.90;;;;;;5091200;28;20102;-60
2023/06/05 08:53:32;;;;;;;10.57;8.23;;;20.50;99.90;;;;;;5091060;28;20058;-61
2023/06/05 08:55:59;;;;;;;15.25;9.75;;;20.30;99.90;;;;;;5089792;28;20040;-60
2023/06/05 08:58:25;;;;;;;18.25;9.82;;;20.20;99.90;;;;;;5090973;28;20044;-59
2023/06/05 09:00:53;;;;;;;15.60;9.63;;;20.00;99.90;;;;;;5090065;28;20047;-61
2023/06/05 09:03:20;;;;;;;14.32;10.35;;;19.90;99.90;;;;;;5080660;28;20047;-59
2023/06/05 09:05:47;;;;;;;;;;;19.80;99.90;;;;;;5086256;28;20040;-61
2023/06/05 09:08:16;;;;;;;16.90;10.20;;;19.70;99.90;;;;;;5089999;28;19924;-61
2023/06/05 09:10:43;;;;;;;19.65;11.00;;;19.60;99.90;;;;;;5085642;28;20503;-61
2023/06/05 09:13:10;;;;;;;;;;;19.50;99.90;;;;;;5091284;28;20040;-61
2023/06/05 09:15:38;;;;;;;17.25;10.80;;;19.30;99.90;;;;;;5089760;28;19924;-59
2023/06/05 09:18:08;;;;;;;;;;;19.20;99.90;;;;;;5089934;28;20040;-60
2023/06/05 09:20:45;;;;;;;24.88;12.25;;;19.00;99.90;;;;;;5090081;28;19927;-59
2023/06/05 09:23:28;;;;;;;24.30;11.02;;;19.00;99.90;;;;;;5089850;28;20086;-58
2023/06/05 09:26:00;;;;;;;14.70;10.35;;;19.00;99.90;;;;;;5071784;28;20054;-60
2023/06/05 09:28:27;;;;;;;18.35;10.82;;;19.10;99.90;;;;;;5083673;28;20051;-59
2023/06/05 09:31:01;;;;;;;16.00;10.80;;;18.90;99.90;;;;;;5089998;28;20063;-59
2023/06/05 09:33:35;;;;;;;16.52;11.68;;;19.00;99.90;;;;;;5090744;28;20044;-59
2023/06/05 09:36:11;;;;;;;22.85;12.20;;;19.00;99.90;;;;;;5093549;28;20051;-60
2023/06/05 09:38:39;;;;;;;15.65;12.02;;;19.00;99.90;;;;;;5093557;28;20040;-60
2023/06/05 09:41:11;;;;;;;19.33;12.20;;;18.90;99.90;;;;;;5096814;28;20489;-59
2023/06/05 09:43:38;;;;;;;19.23;11.90;;;18.80;99.90;;;;;;5096710;28;20055;-60
2023/06/05 09:46:10;;;;;;;18.10;11.45;;;18.70;99.90;;;;;;5096974;28;20484;-60
2023/06/05 09:48:43;;;;;;;17.33;11.90;;;18.70;99.90;;;;;;5093732;28;20094;-60
2023/06/05 09:51:13;;;;;;;24.05;12.40;;;18.80;99.90;;;;;;5096707;28;20039;-58
2023/06/05 09:53:46;;;;;;;22.33;12.57;;;18.80;99.90;;;;;;5096997;28;20044;-59
2023/06/05 09:56:19;;;;;;;19.38;12.32;;;18.80;99.90;;;;;;5093840;28;20040;-59
2023/06/05 09:58:48;;;;;;;20.70;13.10;;;18.80;99.90;;;;;;5096129;28;20047;-60
2023/06/05 10:01:27;;;;;;;19.65;13.65;;;18.80;99.90;;;;;;5096903;28;20135;-60
2023/06/05 10:04:00;;;;;;;19.42;13.70;;;18.90;99.90;;;;;;5096189;28;20047;-60
2023/06/05 10:06:28;;;;;;;20.50;14.23;;;18.80;99.90;;;;;;5091631;28;20556;-59
2023/06/05 10:08:56;;;;;;;23.08;14.85;;;18.80;99.90;;;;;;5094699;28;20048;-60
2023/06/05 10:11:26;;;;;;;27.55;15.23;;;18.80;99.90;;;;;;5097306;28;20058;-59
2023/06/05 10:13:59;;;;;;;21.33;15.68;;;18.70;99.90;;;;;;5095857;28;20082;-59
2023/06/05 10:16:28;;;;;;;24.17;14.90;;;18.50;99.90;;;;;;5071312;28;20067;-59
2023/06/05 10:18:57;;;;;;;28.48;16.35;;;18.40;99.90;;;;;;5094836;28;20043;-59
2023/06/05 10:21:25;;;;;;;24.25;15.07;;;18.40;99.90;;;;;;5096789;28;20415;-60
2023/06/05 10:24:22;;;;;;;27.33;17.10;;;18.30;99.90;;;;;;5095408;28;20044;-60
2023/06/05 10:27:36;;;;;;;25.60;15.52;;;18.40;99.90;;;;;;5097023;28;20047;-59
2023/06/05 10:30:11;;;;;;;24.65;16.33;;;18.40;99.90;;;;;;5094550;28;20048;-59
2023/06/05 10:33:12;;;;;;;26.13;17.02;;;18.30;99.90;;;;;;5095513;28;20150;-60
2023/06/05 10:36:00;;;;;;;27.08;17.67;;;18.20;99.90;;;;;;5088873;28;20047;-60
2023/06/05 10:38:28;;;;;;;29.55;17.65;;;18.20;99.90;;;;;;5089040;28;20085;-60
2023/06/05 10:40:59;;;;;;;26.33;17.67;;;18.30;99.90;;;;;;5093516;28;20048;-60
2023/06/05 10:43:48;;;;;;;27.50;18.88;;;18.20;99.90;;;;;;5093316;28;20051;-60
2023/06/05 10:46:31;;;;;;;30.10;18.20;;;18.20;99.90;;;;;;5095296;28;20509;-60
2023/06/05 10:49:05;;;;;;;26.88;17.67;;;18.20;99.90;;;;;;5092337;28;20082;-60
2023/06/05 10:51:39;;;;;;;31.27;19.75;;;18.30;99.90;;;;;;5090741;28;20044;-60
2023/06/05 10:54:07;;;;;;;31.33;17.88;;;18.30;99.90;;;;;;5090813;28;20040;-60
2023/06/05 10:56:53;;;;;;;25.60;18.75;;;18.20;99.90;;;;;;5092652;28;20616;-61
2023/06/05 10:59:20;;;;;;;29.00;18.35;;;18.20;99.90;;;;;;5085475;28;20036;-59
2023/06/05 11:02:15;;;;;;;29.33;19.35;;;18.20;99.90;;;;;;5085743;28;20132;-61
2023/06/05 11:04:48;;;;;;;34.67;19.63;;;18.20;99.90;;;;;;5088518;28;20051;-61
2023/06/05 11:07:23;;;;;;;36.22;20.20;;;18.10;99.90;;;;;;5092098;28;20064;-59
2023/06/05 11:10:21;;;;;;;29.67;20.55;;;18.10;99.90;;;;;;5089652;28;20048;-60
2023/06/05 11:12:51;;;;;;;26.35;19.55;;;18.10;99.90;;;;;;5084490;28;20067;-61
2023/06/05 11:15:39;;;;;;;28.60;19.10;;;18.10;99.90;;;;;;5091861;28;20040;-61
2023/06/05 11:18:34;;;;;;;29.02;20.38;;;18.10;99.90;;;;;;5092535;28;20036;-59
2023/06/05 11:21:01;;;;;;;28.67;20.13;;;18.10;99.90;;;;;;5090742;28;20048;-59
2023/06/05 11:23:29;;;;;;;31.13;20.40;;;18.10;99.90;;;;;;5093223;28;20043;-60
2023/06/05 11:25:57;;;;;;;31.25;20.55;;;18.20;99.90;;;;;;5091766;28;20048;-60
2023/06/05 11:28:41;;;;;;;35.78;20.70;;;18.20;99.90;;;;;;5092557;28;20507;-60
2023/06/05 11:31:08;;;;;;;27.63;19.55;;;18.30;99.90;;;;;;5092012;28;20055;-60
2023/06/05 11:33:35;;;;;;;27.17;18.58;;;18.40;99.90;;;;;;5092643;28;20040;-60
2023/06/05 11:36:06;;;;;;;33.20;19.17;;;18.40;99.90;;;;;;5092175;28;20533;-60
2023/06/05 11:38:34;;;;;;;33.30;18.75;;;18.40;99.90;;;;;;5088182;28;20040;-60
2023/06/05 11:41:06;;;;;;;30.95;18.45;;;18.40;99.90;;;;;;5073944;28;20047;-61
2023/06/05 11:43:41;;;;;;;26.60;17.42;;;18.40;99.90;;;;;;5084678;28;20041;-60
2023/06/05 11:46:07;;;;;;;30.55;19.23;;;18.30;99.90;;;;;;5090184;28;20054;-60
2023/06/05 11:48:42;;;;;;;;;;;18.30;99.90;;;;;;5091230;28;20101;-59
2023/06/05 11:51:08;;;;;;;29.38;19.83;;;18.20;99.90;;;;;;5092354;28;19927;-58
2023/06/05 11:53:37;;;;;;;27.17;19.63;;;18.20;99.90;;;;;;5088506;28;20036;-60
2023/06/05 11:56:15;;;;;;;28.27;19.30;;;18.20;99.90;;;;;;5091829;28;20072;-60
2023/06/05 11:58:41;;;;;;;;;;;18.20;99.90;;;;;;5091049;28;20122;-60
2023/06/05 12:01:21;;;;;;;28.80;19.52;;;18.30;99.90;;;;;;5089473;28;19927;-59
2023/06/05 12:04:02;;;;;;;33.17;20.02;;;18.30;99.90;;;;;;5086927;28;20048;-61
2023/06/05 12:06:29;;;;;;;29.35;19.42;;;18.20;99.90;;;;;;5084854;28;20105;-60
2023/06/05 12:09:11;;;;;;;30.00;19.35;;;18.00;99.90;;;;;;5090898;28;20400;-60
2023/06/05 12:11:38;;;;;;;34.60;20.25;;;18.20;99.90;;;;;;5083280;28;20040;-60
2023/06/05 12:14:06;;;;;;;32.45;21.02;;;18.20;99.90;;;;;;5090836;28;20047;-61
2023/06/05 12:16:34;;;;;;;34.53;21.58;;;18.20;99.90;;;;;;5090660;28;20050;-61
2023/06/05 12:19:02;;;;;;;30.33;18.92;;;18.20;99.90;;;;;;5087469;28;20400;-60
2023/06/05 12:21:40;;;;;;;29.27;19.30;;;18.20;99.90;;;;;;5097243;28;20496;-59
2023/06/05 12:24:07;;;;;;;28.00;18.45;;;18.20;99.90;;;;;;5090884;28;20058;-60
2023/06/05 12:26:58;;;;;;;29.40;19.80;;;18.30;99.90;;;;;;5085842;28;20051;-59
2023/06/05 12:29:31;;;;;;;33.55;20.73;;;18.20;99.90;;;;;;5086345;28;20105;-60
2023/06/05 12:32:00;;;;;;;25.55;18.50;;;18.30;99.90;;;;;;5090941;28;20050;-61
2023/06/05 12:34:44;;;;;;;26.85;17.95;;;18.30;99.90;;;;;;5087750;28;20123;-60
2023/06/05 12:37:49;;;;;;;31.20;20.65;;;18.40;99.90;;;;;;5090339;28;20048;-60
2023/06/05 12:40:20;;;;;;;27.77;19.48;;;18.40;99.90;;;;;;5091227;28;20063;-60
2023/06/05 12:43:01;;;;;;;24.85;17.83;;;18.40;99.90;;;;;;5090503;28;20067;-61
2023/06/05 12:45:30;;;;;;;22.27;16.42;;;18.40;99.90;;;;;;5091767;28;20036;-60
2023/06/05 12:47:57;;;;;;;24.90;15.57;;;18.50;99.90;;;;;;5086825;28;20157;-60
2023/06/05 12:50:25;;;;;;;24.98;17.63;;;18.50;99.90;;;;;;5091436;28;20052;-59
2023/06/05 12:52:52;;;;;;;25.35;17.70;;;18.50;99.90;;;;;;5090172;28;20561;-61
2023/06/05 12:55:19;;;;;;;24.45;17.80;;;18.50;99.90;;;;;;5089063;28;20047;-60
2023/06/05 12:57:46;;;;;;;25.83;18.25;;;18.60;99.90;;;;;;5089470;28;20545;-61
2023/06/05 13:00:13;;;;;;;25.58;17.75;;;18.70;99.90;;;;;;5090762;28;20044;-61
2023/06/05 13:02:45;;;;;;;28.08;17.67;;;18.70;99.90;;;;;;5090312;28;20044;-60